sensor_id;sensor_type;location;lat;lon;timestamp;temperature;humidity
37281;DHT22;23169;41.804;12.596;2023-05-07T00:01:19;16.20;33.60
37281;DHT22;23169;41.804;12.596;2023-05-07T00:03:52;16.20;33.90
37281;DHT22;23169;41.804;12.596;2023-05-07T00:06:21;16.30;39.30
37281;DHT22;23169;41.804;12.596;2023-05-07T00:08:51;16.40;38.70
37281;DHT22;23169;41.804;12.596;2023-05-07T00:11:27;16.40;40.50
37281;DHT22;23169;41.804;12.596;2023-05-07T00:14:04;16.50;39.70
37281;DHT22;23169;41.804;12.596;2023-05-07T00:16:33;16.50;38.90
37281;DHT22;23169;41.804;12.596;2023-05-07T00:19:03;16.50;41.30
37281;DHT22;23169;41.804;12.596;2023-05-07T00:21:32;16.50;42.40
37281;DHT22;23169;41.804;12.596;2023-05-07T00:24:05;16.50;41.60
37281;DHT22;23169;41.804;12.596;2023-05-07T00:26:44;16.50;38.10
37281;DHT22;23169;41.804;12.596;2023-05-07T00:29:13;16.50;39.00
37281;DHT22;23169;41.804;12.596;2023-05-07T00:31:43;16.40;37.60
37281;DHT22;23169;41.804;12.596;2023-05-07T00:34:15;16.40;36.10
37281;DHT22;23169;41.804;12.596;2023-05-07T00:36:43;16.30;38.00
37281;DHT22;23169;41.804;12.596;2023-05-07T00:39:13;16.30;40.70
37281;DHT22;23169;41.804;12.596;2023-05-07T00:41:42;16.30;42.30
37281;DHT22;23169;41.804;12.596;2023-05-07T00:44:10;16.20;44.40
37281;DHT22;23169;41.804;12.596;2023-05-07T00:46:40;16.20;50.30
37281;DHT22;23169;41.804;12.596;2023-05-07T00:49:10;16.20;56.20
37281;DHT22;23169;41.804;12.596;2023-05-07T00:51:42;16.20;68.40
37281;DHT22;23169;41.804;12.596;2023-05-07T00:54:14;16.20;76.50
37281;DHT22;23169;41.804;12.596;2023-05-07T00:56:44;16.20;90.20
37281;DHT22;23169;41.804;12.596;2023-05-07T00:59:14;16.30;94.80
37281;DHT22;23169;41.804;12.596;2023-05-07T01:01:43;16.30;94.40
37281;DHT22;23169;41.804;12.596;2023-05-07T01:04:12;16.30;94.40
37281;DHT22;23169;41.804;12.596;2023-05-07T01:06:41;16.30;86.70
37281;DHT22;23169;41.804;12.596;2023-05-07T01:09:10;16.20;68.80
37281;DHT22;23169;41.804;12.596;2023-05-07T01:11:40;16.20;65.60
37281;DHT22;23169;41.804;12.596;2023-05-07T01:14:11;16.20;58.50
37281;DHT22;23169;41.804;12.596;2023-05-07T01:16:40;16.20;61.70
37281;DHT22;23169;41.804;12.596;2023-05-07T01:19:11;16.20;61.20
37281;DHT22;23169;41.804;12.596;2023-05-07T01:21:46;16.20;65.00
37281;DHT22;23169;41.804;12.596;2023-05-07T01:24:15;16.20;64.10
37281;DHT22;23169;41.804;12.596;2023-05-07T01:26:44;16.20;63.40
37281;DHT22;23169;41.804;12.596;2023-05-07T01:29:13;16.30;59.50
37281;DHT22;23169;41.804;12.596;2023-05-07T01:31:47;16.30;54.30
37281;DHT22;23169;41.804;12.596;2023-05-07T01:34:17;16.20;52.30
37281;DHT22;23169;41.804;12.596;2023-05-07T01:36:47;16.20;51.00
37281;DHT22;23169;41.804;12.596;2023-05-07T01:39:17;16.20;50.40
37281;DHT22;23169;41.804;12.596;2023-05-07T01:41:47;16.20;48.70
37281;DHT22;23169;41.804;12.596;2023-05-07T01:44:16;16.20;48.50
37281;DHT22;23169;41.804;12.596;2023-05-07T01:46:47;16.10;44.80
37281;DHT22;23169;41.804;12.596;2023-05-07T01:49:17;16.10;42.70
37281;DHT22;23169;41.804;12.596;2023-05-07T01:51:47;16.10;43.00
37281;DHT22;23169;41.804;12.596;2023-05-07T01:54:16;16.10;44.70
37281;DHT22;23169;41.804;12.596;2023-05-07T01:56:45;16.10;47.90
37281;DHT22;23169;41.804;12.596;2023-05-07T02:01:45;16.10;40.30
37281;DHT22;23169;41.804;12.596;2023-05-07T02:04:17;16.10;49.00
37281;DHT22;23169;41.804;12.596;2023-05-07T02:06:45;16.10;48.40
37281;DHT22;23169;41.804;12.596;2023-05-07T02:09:15;16.10;46.10
37281;DHT22;23169;41.804;12.596;2023-05-07T02:11:45;16.10;44.90
37281;DHT22;23169;41.804;12.596;2023-05-07T02:16:44;16.00;30.70
37281;DHT22;23169;41.804;12.596;2023-05-07T02:19:12;16.00;38.40
37281;DHT22;23169;41.804;12.596;2023-05-07T02:21:41;15.90;36.80
37281;DHT22;23169;41.804;12.596;2023-05-07T02:24:10;15.90;34.90
37281;DHT22;23169;41.804;12.596;2023-05-07T02:26:40;15.90;33.90
37281;DHT22;23169;41.804;12.596;2023-05-07T02:29:08;15.90;31.40
37281;DHT22;23169;41.804;12.596;2023-05-07T02:31:37;15.90;29.00
37281;DHT22;23169;41.804;12.596;2023-05-07T02:34:06;15.80;26.70
37281;DHT22;23169;41.804;12.596;2023-05-07T02:36:36;15.80;25.60
37281;DHT22;23169;41.804;12.596;2023-05-07T02:39:04;15.80;23.20
37281;DHT22;23169;41.804;12.596;2023-05-07T02:41:33;15.70;21.50
37281;DHT22;23169;41.804;12.596;2023-05-07T02:44:02;15.70;20.20
37281;DHT22;23169;41.804;12.596;2023-05-07T02:46:31;15.60;19.50
37281;DHT22;23169;41.804;12.596;2023-05-07T02:49:02;15.50;19.00
37281;DHT22;23169;41.804;12.596;2023-05-07T02:51:32;15.40;18.90
37281;DHT22;23169;41.804;12.596;2023-05-07T02:54:00;15.50;19.50
37281;DHT22;23169;41.804;12.596;2023-05-07T02:56:30;15.50;19.70
37281;DHT22;23169;41.804;12.596;2023-05-07T02:58:58;15.50;19.60
37281;DHT22;23169;41.804;12.596;2023-05-07T03:01:27;15.60;27.70
37281;DHT22;23169;41.804;12.596;2023-05-07T03:03:55;15.40;19.90
37281;DHT22;23169;41.804;12.596;2023-05-07T03:06:24;15.30;20.00
37281;DHT22;23169;41.804;12.596;2023-05-07T03:08:53;15.30;20.60
37281;DHT22;23169;41.804;12.596;2023-05-07T03:11:21;15.30;21.10
37281;DHT22;23169;41.804;12.596;2023-05-07T03:13:49;15.20;30.70
37281;DHT22;23169;41.804;12.596;2023-05-07T03:16:18;15.20;21.90
37281;DHT22;23169;41.804;12.596;2023-05-07T03:18:50;15.20;22.40
37281;DHT22;23169;41.804;12.596;2023-05-07T03:21:18;15.20;23.30
37281;DHT22;23169;41.804;12.596;2023-05-07T03:23:47;15.10;24.30
37281;DHT22;23169;41.804;12.596;2023-05-07T03:26:17;15.20;25.60
37281;DHT22;23169;41.804;12.596;2023-05-07T03:28:46;15.20;26.70
37281;DHT22;23169;41.804;12.596;2023-05-07T03:31:15;15.20;29.00
37281;DHT22;23169;41.804;12.596;2023-05-07T03:33:54;15.20;30.50
37281;DHT22;23169;41.804;12.596;2023-05-07T03:36:23;15.20;33.60
37281;DHT22;23169;41.804;12.596;2023-05-07T03:38:52;15.20;33.60
37281;DHT22;23169;41.804;12.596;2023-05-07T03:41:20;15.20;34.00
37281;DHT22;23169;41.804;12.596;2023-05-07T03:43:49;15.20;36.50
37281;DHT22;23169;41.804;12.596;2023-05-07T03:46:20;15.10;37.00
37281;DHT22;23169;41.804;12.596;2023-05-07T03:48:49;15.10;35.70
37281;DHT22;23169;41.804;12.596;2023-05-07T03:51:17;15.00;35.60
37281;DHT22;23169;41.804;12.596;2023-05-07T03:53:47;14.90;36.00
37281;DHT22;23169;41.804;12.596;2023-05-07T03:56:15;14.90;35.70
37281;DHT22;23169;41.804;12.596;2023-05-07T03:58:44;14.80;35.70
37281;DHT22;23169;41.804;12.596;2023-05-07T04:01:13;14.80;37.20
37281;DHT22;23169;41.804;12.596;2023-05-07T04:03:42;14.70;49.10
37281;DHT22;23169;41.804;12.596;2023-05-07T04:06:10;14.70;38.10
37281;DHT22;23169;41.804;12.596;2023-05-07T04:08:40;14.70;38.70
37281;DHT22;23169;41.804;12.596;2023-05-07T04:11:08;14.70;39.20
37281;DHT22;23169;41.804;12.596;2023-05-07T04:13:37;14.70;39.00
37281;DHT22;23169;41.804;12.596;2023-05-07T04:16:06;14.70;39.00
37281;DHT22;23169;41.804;12.596;2023-05-07T04:18:34;14.70;39.40
37281;DHT22;23169;41.804;12.596;2023-05-07T04:21:04;14.70;40.70
37281;DHT22;23169;41.804;12.596;2023-05-07T04:23:34;14.70;40.80
37281;DHT22;23169;41.804;12.596;2023-05-07T04:26:03;14.80;40.70
37281;DHT22;23169;41.804;12.596;2023-05-07T04:28:33;14.80;41.10
37281;DHT22;23169;41.804;12.596;2023-05-07T04:31:02;14.80;40.60
37281;DHT22;23169;41.804;12.596;2023-05-07T04:33:31;14.80;41.00
37281;DHT22;23169;41.804;12.596;2023-05-07T04:36:04;14.80;42.00
37281;DHT22;23169;41.804;12.596;2023-05-07T04:38:33;14.90;42.30
37281;DHT22;23169;41.804;12.596;2023-05-07T04:41:06;14.90;41.20
37281;DHT22;23169;41.804;12.596;2023-05-07T04:43:35;14.90;41.00
37281;DHT22;23169;41.804;12.596;2023-05-07T04:46:04;15.00;40.80
37281;DHT22;23169;41.804;12.596;2023-05-07T04:48:34;15.00;40.80
37281;DHT22;23169;41.804;12.596;2023-05-07T04:51:03;15.00;40.80
37281;DHT22;23169;41.804;12.596;2023-05-07T04:53:31;15.10;41.10
37281;DHT22;23169;41.804;12.596;2023-05-07T04:56:00;15.10;39.50
37281;DHT22;23169;41.804;12.596;2023-05-07T04:58:30;15.20;39.30
37281;DHT22;23169;41.804;12.596;2023-05-07T05:00:59;15.20;37.20
37281;DHT22;23169;41.804;12.596;2023-05-07T05:03:29;15.30;36.30
37281;DHT22;23169;41.804;12.596;2023-05-07T05:05:58;15.40;33.80
37281;DHT22;23169;41.804;12.596;2023-05-07T05:08:30;15.40;30.20
37281;DHT22;23169;41.804;12.596;2023-05-07T05:11:01;15.50;27.90
37281;DHT22;23169;41.804;12.596;2023-05-07T05:13:33;15.60;24.50
37281;DHT22;23169;41.804;12.596;2023-05-07T05:16:02;15.70;19.60
37281;DHT22;23169;41.804;12.596;2023-05-07T05:18:32;15.70;16.80
37281;DHT22;23169;41.804;12.596;2023-05-07T05:21:01;15.70;12.70
37281;DHT22;23169;41.804;12.596;2023-05-07T05:23:30;15.70;11.30
37281;DHT22;23169;41.804;12.596;2023-05-07T05:25:59;15.80;9.90
37281;DHT22;23169;41.804;12.596;2023-05-07T05:28:28;15.80;7.60
37281;DHT22;23169;41.804;12.596;2023-05-07T05:30:58;15.80;6.40
37281;DHT22;23169;41.804;12.596;2023-05-07T05:33:26;15.80;5.30
37281;DHT22;23169;41.804;12.596;2023-05-07T05:35:55;15.90;6.70
37281;DHT22;23169;41.804;12.596;2023-05-07T05:38:24;15.90;9.80
37281;DHT22;23169;41.804;12.596;2023-05-07T05:40:52;16.00;11.90
37281;DHT22;23169;41.804;12.596;2023-05-07T05:43:21;16.00;14.50
37281;DHT22;23169;41.804;12.596;2023-05-07T05:45:50;16.00;15.70
37281;DHT22;23169;41.804;12.596;2023-05-07T05:48:18;16.00;16.30
37281;DHT22;23169;41.804;12.596;2023-05-07T05:50:47;16.10;16.40
37281;DHT22;23169;41.804;12.596;2023-05-07T05:53:16;16.10;16.70
37281;DHT22;23169;41.804;12.596;2023-05-07T05:55:45;16.20;16.60
37281;DHT22;23169;41.804;12.596;2023-05-07T05:58:15;16.20;16.00
37281;DHT22;23169;41.804;12.596;2023-05-07T06:00:45;16.20;15.60
37281;DHT22;23169;41.804;12.596;2023-05-07T06:03:14;16.20;15.00
37281;DHT22;23169;41.804;12.596;2023-05-07T06:05:43;16.30;14.80
37281;DHT22;23169;41.804;12.596;2023-05-07T06:08:14;16.30;14.70
37281;DHT22;23169;41.804;12.596;2023-05-07T06:10:43;16.30;14.10
37281;DHT22;23169;41.804;12.596;2023-05-07T06:13:12;16.30;13.60
37281;DHT22;23169;41.804;12.596;2023-05-07T06:15:41;16.30;13.40
37281;DHT22;23169;41.804;12.596;2023-05-07T06:18:09;16.40;12.90
37281;DHT22;23169;41.804;12.596;2023-05-07T06:20:38;16.40;13.00
37281;DHT22;23169;41.804;12.596;2023-05-07T06:23:08;16.50;13.30
37281;DHT22;23169;41.804;12.596;2023-05-07T06:25:37;16.50;13.60
37281;DHT22;23169;41.804;12.596;2023-05-07T06:28:09;16.60;13.30
37281;DHT22;23169;41.804;12.596;2023-05-07T06:30:39;16.70;12.10
37281;DHT22;23169;41.804;12.596;2023-05-07T06:33:14;16.80;12.50
37281;DHT22;23169;41.804;12.596;2023-05-07T06:35:43;16.80;13.00
37281;DHT22;23169;41.804;12.596;2023-05-07T06:38:11;16.90;11.90
37281;DHT22;23169;41.804;12.596;2023-05-07T06:40:40;17.10;11.80
37281;DHT22;23169;41.804;12.596;2023-05-07T06:43:09;17.20;11.30
37281;DHT22;23169;41.804;12.596;2023-05-07T06:45:38;17.30;10.80
37281;DHT22;23169;41.804;12.596;2023-05-07T06:48:06;17.40;10.40
37281;DHT22;23169;41.804;12.596;2023-05-07T06:50:35;17.50;9.70
37281;DHT22;23169;41.804;12.596;2023-05-07T06:53:04;17.60;8.00
37281;DHT22;23169;41.804;12.596;2023-05-07T06:55:33;17.80;6.90
37281;DHT22;23169;41.804;12.596;2023-05-07T06:58:02;17.90;7.80
37281;DHT22;23169;41.804;12.596;2023-05-07T07:00:32;18.00;8.20
37281;DHT22;23169;41.804;12.596;2023-05-07T07:03:00;18.10;8.50
37281;DHT22;23169;41.804;12.596;2023-05-07T07:05:28;18.20;8.90
37281;DHT22;23169;41.804;12.596;2023-05-07T07:07:57;18.30;8.50
37281;DHT22;23169;41.804;12.596;2023-05-07T07:10:26;18.50;8.10
37281;DHT22;23169;41.804;12.596;2023-05-07T07:12:54;18.60;5.70
37281;DHT22;23169;41.804;12.596;2023-05-07T07:15:23;18.60;4.10
37281;DHT22;23169;41.804;12.596;2023-05-07T07:17:53;18.80;2.80
37281;DHT22;23169;41.804;12.596;2023-05-07T07:20:21;18.90;1.20
37281;DHT22;23169;41.804;12.596;2023-05-07T07:22:50;19.10;1.90
37281;DHT22;23169;41.804;12.596;2023-05-07T07:25:18;19.20;1.00
37281;DHT22;23169;41.804;12.596;2023-05-07T07:27:47;19.40;1.00
37281;DHT22;23169;41.804;12.596;2023-05-07T07:30:15;19.50;1.00
37281;DHT22;23169;41.804;12.596;2023-05-07T07:32:44;19.60;1.00
37281;DHT22;23169;41.804;12.596;2023-05-07T07:35:13;19.60;1.00
37281;DHT22;23169;41.804;12.596;2023-05-07T07:37:42;19.80;1.00
37281;DHT22;23169;41.804;12.596;2023-05-07T07:40:11;19.80;1.00
37281;DHT22;23169;41.804;12.596;2023-05-07T07:42:40;19.70;1.00
37281;DHT22;23169;41.804;12.596;2023-05-07T07:45:09;19.80;1.00
37281;DHT22;23169;41.804;12.596;2023-05-07T07:47:40;19.90;1.00
37281;DHT22;23169;41.804;12.596;2023-05-07T07:50:09;19.90;1.00
37281;DHT22;23169;41.804;12.596;2023-05-07T07:52:38;20.00;1.00
37281;DHT22;23169;41.804;12.596;2023-05-07T07:55:07;19.90;1.00
37281;DHT22;23169;41.804;12.596;2023-05-07T07:57:36;20.10;1.00
37281;DHT22;23169;41.804;12.596;2023-05-07T08:00:05;20.30;1.00
37281;DHT22;23169;41.804;12.596;2023-05-07T08:02:35;20.60;1.00
37281;DHT22;23169;41.804;12.596;2023-05-07T08:05:04;20.70;1.00
37281;DHT22;23169;41.804;12.596;2023-05-07T08:07:33;20.80;1.00
37281;DHT22;23169;41.804;12.596;2023-05-07T08:10:01;20.70;1.00
37281;DHT22;23169;41.804;12.596;2023-05-07T08:12:31;20.80;1.00
37281;DHT22;23169;41.804;12.596;2023-05-07T08:14:59;21.00;1.00
37281;DHT22;23169;41.804;12.596;2023-05-07T08:17:29;21.10;1.00
37281;DHT22;23169;41.804;12.596;2023-05-07T08:19:58;21.20;1.00
37281;DHT22;23169;41.804;12.596;2023-05-07T08:22:28;21.30;1.00
37281;DHT22;23169;41.804;12.596;2023-05-07T08:24:56;21.30;1.00
37281;DHT22;23169;41.804;12.596;2023-05-07T08:27:25;21.30;1.00
37281;DHT22;23169;41.804;12.596;2023-05-07T08:29:54;21.40;1.00
37281;DHT22;23169;41.804;12.596;2023-05-07T08:32:23;21.60;1.00
37281;DHT22;23169;41.804;12.596;2023-05-07T08:34:51;21.70;1.00
37281;DHT22;23169;41.804;12.596;2023-05-07T08:37:20;21.70;1.00
37281;DHT22;23169;41.804;12.596;2023-05-07T08:39:49;21.80;1.00
37281;DHT22;23169;41.804;12.596;2023-05-07T08:42:18;21.70;1.00
37281;DHT22;23169;41.804;12.596;2023-05-07T08:44:51;21.60;1.00
37281;DHT22;23169;41.804;12.596;2023-05-07T08:47:28;21.70;1.00
37281;DHT22;23169;41.804;12.596;2023-05-07T08:49:57;21.70;1.00
37281;DHT22;23169;41.804;12.596;2023-05-07T08:52:26;21.80;1.00
37281;DHT22;23169;41.804;12.596;2023-05-07T08:54:59;21.90;1.00
37281;DHT22;23169;41.804;12.596;2023-05-07T08:57:28;22.10;1.00
37281;DHT22;23169;41.804;12.596;2023-05-07T09:00:00;22.00;1.00
37281;DHT22;23169;41.804;12.596;2023-05-07T09:02:29;21.80;1.00
37281;DHT22;23169;41.804;12.596;2023-05-07T09:04:57;22.10;1.00
37281;DHT22;23169;41.804;12.596;2023-05-07T09:07:26;22.20;1.00
37281;DHT22;23169;41.804;12.596;2023-05-07T09:09:55;22.40;1.00
37281;DHT22;23169;41.804;12.596;2023-05-07T09:12:24;22.40;1.00
37281;DHT22;23169;41.804;12.596;2023-05-07T09:14:53;22.30;1.00
37281;DHT22;23169;41.804;12.596;2023-05-07T09:17:21;22.20;1.00
37281;DHT22;23169;41.804;12.596;2023-05-07T09:19:50;22.20;1.00
37281;DHT22;23169;41.804;12.596;2023-05-07T09:22:20;22.10;1.00
37281;DHT22;23169;41.804;12.596;2023-05-07T09:24:54;22.90;1.00
37281;DHT22;23169;41.804;12.596;2023-05-07T09:27:28;22.60;1.00
37281;DHT22;23169;41.804;12.596;2023-05-07T09:29:56;22.60;1.00
37281;DHT22;23169;41.804;12.596;2023-05-07T09:32:25;22.70;1.00
37281;DHT22;23169;41.804;12.596;2023-05-07T09:34:55;22.70;1.00
37281;DHT22;23169;41.804;12.596;2023-05-07T09:37:26;22.70;1.00
37281;DHT22;23169;41.804;12.596;2023-05-07T09:39:54;22.80;1.00
37281;DHT22;23169;41.804;12.596;2023-05-07T09:42:24;22.90;1.00
37281;DHT22;23169;41.804;12.596;2023-05-07T09:44:54;22.70;1.00
37281;DHT22;23169;41.804;12.596;2023-05-07T09:47:24;22.80;1.00
37281;DHT22;23169;41.804;12.596;2023-05-07T09:49:56;23.00;1.00
37281;DHT22;23169;41.804;12.596;2023-05-07T09:52:26;22.90;1.00
37281;DHT22;23169;41.804;12.596;2023-05-07T09:55:02;22.80;1.00
37281;DHT22;23169;41.804;12.596;2023-05-07T09:57:33;23.00;1.00
37281;DHT22;23169;41.804;12.596;2023-05-07T10:00:03;23.00;1.00
37281;DHT22;23169;41.804;12.596;2023-05-07T10:02:37;23.30;1.00
37281;DHT22;23169;41.804;12.596;2023-05-07T10:05:15;23.30;1.00
37281;DHT22;23169;41.804;12.596;2023-05-07T10:07:44;23.60;1.00
37281;DHT22;23169;41.804;12.596;2023-05-07T10:10:14;23.60;1.00
37281;DHT22;23169;41.804;12.596;2023-05-07T10:12:47;23.90;1.00
37281;DHT22;23169;41.804;12.596;2023-05-07T10:15:16;23.90;1.00
37281;DHT22;23169;41.804;12.596;2023-05-07T10:17:45;24.00;1.00
37281;DHT22;23169;41.804;12.596;2023-05-07T10:20:14;24.00;1.00
37281;DHT22;23169;41.804;12.596;2023-05-07T10:22:45;24.10;1.00
37281;DHT22;23169;41.804;12.596;2023-05-07T10:25:26;24.20;1.00
37281;DHT22;23169;41.804;12.596;2023-05-07T10:28:06;24.30;1.00
37281;DHT22;23169;41.804;12.596;2023-05-07T10:33:32;24.70;1.00
37281;DHT22;23169;41.804;12.596;2023-05-07T10:36:01;24.90;1.00
37281;DHT22;23169;41.804;12.596;2023-05-07T10:38:36;24.90;1.00
37281;DHT22;23169;41.804;12.596;2023-05-07T10:41:05;25.00;1.00
37281;DHT22;23169;41.804;12.596;2023-05-07T10:43:43;25.00;1.00
37281;DHT22;23169;41.804;12.596;2023-05-07T10:46:15;24.70;1.00
37281;DHT22;23169;41.804;12.596;2023-05-07T10:51:32;25.20;1.00
37281;DHT22;23169;41.804;12.596;2023-05-07T10:56:42;24.90;1.00
37281;DHT22;23169;41.804;12.596;2023-05-07T11:01:54;25.60;1.00
37281;DHT22;23169;41.804;12.596;2023-05-07T11:04:24;25.30;1.00
37281;DHT22;23169;41.804;12.596;2023-05-07T11:09:57;25.50;1.00
37281;DHT22;23169;41.804;12.596;2023-05-07T11:15:10;25.70;1.00
37281;DHT22;23169;41.804;12.596;2023-05-07T11:17:56;25.60;1.00
37281;DHT22;23169;41.804;12.596;2023-05-07T11:20:54;25.40;1.00
37281;DHT22;23169;41.804;12.596;2023-05-07T11:26:10;25.60;1.00
37281;DHT22;23169;41.804;12.596;2023-05-07T11:28:42;25.80;1.00
37281;DHT22;23169;41.804;12.596;2023-05-07T11:33:40;26.00;1.00
37281;DHT22;23169;41.804;12.596;2023-05-07T11:36:09;25.80;1.00
37281;DHT22;23169;41.804;12.596;2023-05-07T11:38:38;25.70;1.00
37281;DHT22;23169;41.804;12.596;2023-05-07T11:41:08;25.30;1.00
37281;DHT22;23169;41.804;12.596;2023-05-07T11:43:37;26.00;1.00
37281;DHT22;23169;41.804;12.596;2023-05-07T11:46:10;26.40;1.00
37281;DHT22;23169;41.804;12.596;2023-05-07T11:48:39;27.00;1.00
37281;DHT22;23169;41.804;12.596;2023-05-07T11:51:09;27.40;1.00
37281;DHT22;23169;41.804;12.596;2023-05-07T11:53:42;27.70;1.00
37281;DHT22;23169;41.804;12.596;2023-05-07T11:56:12;27.90;1.00
37281;DHT22;23169;41.804;12.596;2023-05-07T11:58:42;28.00;1.00
37281;DHT22;23169;41.804;12.596;2023-05-07T12:01:12;28.00;1.00
37281;DHT22;23169;41.804;12.596;2023-05-07T12:03:45;28.10;1.00
37281;DHT22;23169;41.804;12.596;2023-05-07T12:06:16;27.80;1.00
37281;DHT22;23169;41.804;12.596;2023-05-07T12:08:45;28.00;1.00
37281;DHT22;23169;41.804;12.596;2023-05-07T12:11:21;28.00;1.00
37281;DHT22;23169;41.804;12.596;2023-05-07T12:13:50;28.40;1.00
37281;DHT22;23169;41.804;12.596;2023-05-07T12:16:19;28.30;1.00
37281;DHT22;23169;41.804;12.596;2023-05-07T12:18:48;28.30;1.00
37281;DHT22;23169;41.804;12.596;2023-05-07T12:21:17;28.70;1.00
37281;DHT22;23169;41.804;12.596;2023-05-07T12:23:47;28.70;1.00
37281;DHT22;23169;41.804;12.596;2023-05-07T12:26:16;28.40;1.00
37281;DHT22;23169;41.804;12.596;2023-05-07T12:28:46;28.50;1.00
37281;DHT22;23169;41.804;12.596;2023-05-07T12:31:15;29.00;1.00
37281;DHT22;23169;41.804;12.596;2023-05-07T12:33:45;29.10;1.00
37281;DHT22;23169;41.804;12.596;2023-05-07T12:36:15;29.40;1.00
37281;DHT22;23169;41.804;12.596;2023-05-07T12:38:44;27.50;1.00
37281;DHT22;23169;41.804;12.596;2023-05-07T12:41:18;27.30;1.00
37281;DHT22;23169;41.804;12.596;2023-05-07T12:43:56;27.90;1.00
37281;DHT22;23169;41.804;12.596;2023-05-07T12:46:26;28.00;1.00
37281;DHT22;23169;41.804;12.596;2023-05-07T12:48:55;28.20;1.00
37281;DHT22;23169;41.804;12.596;2023-05-07T12:51:24;27.90;1.00
37281;DHT22;23169;41.804;12.596;2023-05-07T12:53:56;27.30;1.00
37281;DHT22;23169;41.804;12.596;2023-05-07T12:56:25;27.70;1.00
37281;DHT22;23169;41.804;12.596;2023-05-07T12:59:00;28.60;1.00
37281;DHT22;23169;41.804;12.596;2023-05-07T13:01:29;28.80;1.00
37281;DHT22;23169;41.804;12.596;2023-05-07T13:04:05;28.30;1.00
37281;DHT22;23169;41.804;12.596;2023-05-07T13:06:34;28.70;1.00
37281;DHT22;23169;41.804;12.596;2023-05-07T13:09:02;29.30;1.00
37281;DHT22;23169;41.804;12.596;2023-05-07T13:11:33;29.20;1.00
37281;DHT22;23169;41.804;12.596;2023-05-07T13:14:01;29.50;1.00
37281;DHT22;23169;41.804;12.596;2023-05-07T13:16:31;29.60;1.00
37281;DHT22;23169;41.804;12.596;2023-05-07T13:18:59;29.30;1.00
37281;DHT22;23169;41.804;12.596;2023-05-07T13:21:30;29.20;1.00
37281;DHT22;23169;41.804;12.596;2023-05-07T13:24:01;27.90;1.00
37281;DHT22;23169;41.804;12.596;2023-05-07T13:26:32;28.00;1.00
37281;DHT22;23169;41.804;12.596;2023-05-07T13:29:01;28.80;1.00
37281;DHT22;23169;41.804;12.596;2023-05-07T13:31:30;29.30;1.00
37281;DHT22;23169;41.804;12.596;2023-05-07T13:33:59;29.50;1.00
37281;DHT22;23169;41.804;12.596;2023-05-07T13:36:28;28.50;1.00
37281;DHT22;23169;41.804;12.596;2023-05-07T13:38:56;28.30;1.00
37281;DHT22;23169;41.804;12.596;2023-05-07T13:41:28;28.80;1.00
37281;DHT22;23169;41.804;12.596;2023-05-07T13:43:58;29.60;1.00
37281;DHT22;23169;41.804;12.596;2023-05-07T13:46:28;29.00;1.00
37281;DHT22;23169;41.804;12.596;2023-05-07T13:48:58;28.80;1.00
37281;DHT22;23169;41.804;12.596;2023-05-07T13:51:27;29.00;1.00
37281;DHT22;23169;41.804;12.596;2023-05-07T13:53:56;29.00;1.00
37281;DHT22;23169;41.804;12.596;2023-05-07T13:56:24;28.60;1.00
37281;DHT22;23169;41.804;12.596;2023-05-07T13:58:54;27.60;1.00
37281;DHT22;23169;41.804;12.596;2023-05-07T14:01:24;29.10;1.00
37281;DHT22;23169;41.804;12.596;2023-05-07T14:03:53;29.90;1.00
37281;DHT22;23169;41.804;12.596;2023-05-07T14:06:21;29.50;1.00
37281;DHT22;23169;41.804;12.596;2023-05-07T14:08:51;29.10;1.00
37281;DHT22;23169;41.804;12.596;2023-05-07T14:11:19;28.60;1.00
37281;DHT22;23169;41.804;12.596;2023-05-07T14:13:49;29.30;1.00
37281;DHT22;23169;41.804;12.596;2023-05-07T14:16:17;30.10;1.00
37281;DHT22;23169;41.804;12.596;2023-05-07T14:18:46;30.20;1.00
37281;DHT22;23169;41.804;12.596;2023-05-07T14:21:15;28.90;1.00
37281;DHT22;23169;41.804;12.596;2023-05-07T14:23:43;29.20;1.00
37281;DHT22;23169;41.804;12.596;2023-05-07T14:26:13;29.50;1.00
37281;DHT22;23169;41.804;12.596;2023-05-07T14:28:42;29.10;1.00
37281;DHT22;23169;41.804;12.596;2023-05-07T14:31:14;28.90;1.00
37281;DHT22;23169;41.804;12.596;2023-05-07T14:33:43;29.20;1.00
37281;DHT22;23169;41.804;12.596;2023-05-07T14:36:12;29.50;1.00
37281;DHT22;23169;41.804;12.596;2023-05-07T14:38:40;29.40;1.00
37281;DHT22;23169;41.804;12.596;2023-05-07T14:41:09;29.50;1.00
37281;DHT22;23169;41.804;12.596;2023-05-07T14:43:38;29.30;1.00
37281;DHT22;23169;41.804;12.596;2023-05-07T14:46:07;30.20;1.00
37281;DHT22;23169;41.804;12.596;2023-05-07T14:48:36;29.80;1.00
37281;DHT22;23169;41.804;12.596;2023-05-07T14:51:04;30.50;1.00
37281;DHT22;23169;41.804;12.596;2023-05-07T14:53:33;30.50;1.00
37281;DHT22;23169;41.804;12.596;2023-05-07T14:56:03;30.40;1.00
37281;DHT22;23169;41.804;12.596;2023-05-07T14:58:33;29.10;1.00
37281;DHT22;23169;41.804;12.596;2023-05-07T15:01:01;28.80;1.00
37281;DHT22;23169;41.804;12.596;2023-05-07T15:06:21;29.60;1.00
37281;DHT22;23169;41.804;12.596;2023-05-07T15:08:52;30.30;1.00
37281;DHT22;23169;41.804;12.596;2023-05-07T15:11:21;30.90;1.00
37281;DHT22;23169;41.804;12.596;2023-05-07T15:13:51;31.10;1.00
37281;DHT22;23169;41.804;12.596;2023-05-07T15:16:19;31.10;1.00
37281;DHT22;23169;41.804;12.596;2023-05-07T15:18:48;30.60;1.00
37281;DHT22;23169;41.804;12.596;2023-05-07T15:21:18;30.30;1.00
37281;DHT22;23169;41.804;12.596;2023-05-07T15:23:47;30.00;1.00
37281;DHT22;23169;41.804;12.596;2023-05-07T15:26:16;30.20;1.00
37281;DHT22;23169;41.804;12.596;2023-05-07T15:31:15;29.60;1.00
37281;DHT22;23169;41.804;12.596;2023-05-07T15:33:44;29.50;1.00
37281;DHT22;23169;41.804;12.596;2023-05-07T15:36:13;29.30;1.00
37281;DHT22;23169;41.804;12.596;2023-05-07T15:38:42;29.10;1.00
37281;DHT22;23169;41.804;12.596;2023-05-07T15:41:11;28.00;1.00
37281;DHT22;23169;41.804;12.596;2023-05-07T15:43:46;28.50;1.00
37281;DHT22;23169;41.804;12.596;2023-05-07T15:46:19;28.90;1.00
37281;DHT22;23169;41.804;12.596;2023-05-07T15:48:49;29.30;1.00
37281;DHT22;23169;41.804;12.596;2023-05-07T15:51:18;28.80;1.00
37281;DHT22;23169;41.804;12.596;2023-05-07T15:53:48;28.20;1.00
37281;DHT22;23169;41.804;12.596;2023-05-07T15:56:18;27.90;1.00
37281;DHT22;23169;41.804;12.596;2023-05-07T15:58:46;27.10;1.00
37281;DHT22;23169;41.804;12.596;2023-05-07T16:01:17;26.30;1.00
37281;DHT22;23169;41.804;12.596;2023-05-07T16:03:46;25.50;1.00
37281;DHT22;23169;41.804;12.596;2023-05-07T16:06:14;24.90;1.00
37281;DHT22;23169;41.804;12.596;2023-05-07T16:08:44;24.60;1.00
37281;DHT22;23169;41.804;12.596;2023-05-07T16:11:13;24.30;1.00
37281;DHT22;23169;41.804;12.596;2023-05-07T16:13:41;24.30;1.00